Madawaska, ME

10:45 AM EST on March 03, 2015 (GMT -0500)
Northern Aroostook Regional | Change Station
CLOSE
Current Station
Airport
Location: Frenchville,
Elevation: 988 ft
Nearby Weather Stations

Elev 988 ft 47.29 °N, 68.31 °W | Updated 52 minutes ago

Clear
Clear
4 °F
Feels Like -18 °F
N
22
Wind Variable Wind from NNW
Gusts 26 mph

Today
High -- | Low -- °F
--% Chance of Precip.
Yesterday
High -- | Low -- °F
Precip. -- in
6:10 AM 5:20 PM
Waxing Gibbous, 96% visible
Pressure 30.19 in
Visibility 10.0 miles
Clouds Clear
Windchill -18 °F
Dew Point -14 °F
Humidity 43%
Rainfall 0.00 in
Snow Depth Not available.
UV 3 out of 12
Pollen .30 out of 12
Air Quality Not available.
Flu Activity Not available.
METAR KFVE 031453Z AUTO 34019G23KT 10SM CLR M16/M26 A3012 RMK AO2 SLP223 T11561256 50005

More Conditions Fewer Conditions

Pressure 30.19 in
Visibility 10.0 miles
Clouds Clear
Windchill -18 °F
Dew Point -14 °F
Humidity 43%
Rainfall 0.00 in
Snow Depth Not available.
UV 3 out of 12
Pollen .30 out of 12
Air Quality Not available.
Flu Activity Not available.
METAR KFVE 031453Z AUTO 34019G23KT 10SM CLR M16/M26 A3012 RMK AO2 SLP223 T11561256 50005

More Conditions Fewer Conditions

10-Day Weather Forecast

Almanac

Astronomy

Mar. 03, 2015 Rise Set
Actual Time
Civil Twilight
Nautical Twilight
Astronomical Twilight
Moon
Length of Visible Light
Length of Day
Tomorrow will be .
, % of the Moon is Illuminated

Today's Extremes

State Highs State Lows

Community

WunderPhotos

Upload Photos

1,802,149 photos uploaded!

WunderBlogs® & News

Nearby

Air Quality

  Air Quality AQ Index Pollutant
Not available.

Snow Depth

Station Depth Elevation

Earthquake Activity

City Distance Mag. Time & Date
Minimum magnitude displayed is 2.5.

Coastal Water Temperatures

Place Temperature

Nearby Weather Stations